Weather in selectable METAR weather stations

1) Select the Continent / Group:

[Europe]  [Asia]  [Africa]  [North America]  [South America]  
[Central America and Caribbean]  [Oceania]  [Antarctica]  
2) Select the Weather station (City):


METAR = YBAS 242200Z AUTO 00000KT 9999 // NCD 03/M01 Q1021

STATIONYBAS
NAMEAlice Springs Arpt, NT, AU
OBSERVED25.05.2020 07:30 (24.05.2020 22:00 UTC), 2 min ago
TEMPERATURE3.0°C ( 37°F)
WINDcalm
HUMIDITY75%
PRESSURE1021 hPa
Click here to search the weather station or to give the station identifier
(four-character ICAO Location Indicator) for weather data.